Heisson, Washington
Current Conditions -  °F | °C
As of 6:53 AM on Sunday 21 Dec 2014 (Local Time) from KVUO Reporting Station
Broken Clouds Broken Clouds  
Wind Chill: 55°   Ceiling: 10000
Heat Index: 55°   Visibility: 10mi
Dew Point: 48°   Wind: 8mph
Humidity: 77%   Direction: 220°SW
Pressure: 29.93"   Gusts: NA
Location:  45.82°N, 122.49°W
Report Text: KVUO 211453Z AUTO 22007KT 10SM BKN100 13/09 A2993 RMK AO2 SLP136 T01280089 53019
Loading
Personal Weather Stations






























Interactive Weather Map New forecast layout! Learn more

10-Day Weather Forecast

Advertisements
Track Severe Weather on mobile